Honolulu, HI

9:22 PM HST on September 22, 2014 (GMT -1000)
Kalaeloa (John Rodgers Field) | Change Station
CLOSE
Current Station
Airport
Location: Kalaeloa,
Elevation: 49 ft
Nearby Weather Stations

Elev 49 ft 21.31 °N, 158.07 °W | Updated 29 minutes ago

Partly Cloudy
Partly Cloudy
80 °F
Feels Like 83 °F
N
5
Wind Variable Wind from ENE

Today
High -- | Low -- °F
--% Chance of Precip.
Yesterday
High -- | Low -- °F
Precip. -- in
6:20 AM 6:27 PM
Waning Crescent, 1% visible
Pressure 30.09 in
Visibility 10.0 miles
Clouds Few 200 ft
Heat Index 83 °F
Dew Point 69 °F
Humidity 69%
Rainfall 0.00 in
Snow Depth Not available.
UV 0 out of 12
Pollen Not available.
PM2.5 Good
Flu Activity Not available.
METAR PHJR 230653Z 06004KT 10SM FEW002 27/21 A3007 RMK AO2 SLP187 T02670206

More Conditions Fewer Conditions

Pressure 30.09 in
Visibility 10.0 miles
Clouds Few 200 ft
Heat Index 83 °F
Dew Point 69 °F
Humidity 69%
Rainfall 0.00 in
Snow Depth Not available.
UV 0 out of 12
Pollen Not available.
PM2.5 Good
Flu Activity Not available.
METAR PHJR 230653Z 06004KT 10SM FEW002 27/21 A3007 RMK AO2 SLP187 T02670206

More Conditions Fewer Conditions

10-Day Weather Forecast

Almanac

Astronomy

Sep. 22, 2014 Rise Set
Actual Time 6:20 AM HST 6:27 PM HST
Civil Twilight 5:57 AM HST 6:49 PM HST
Nautical Twilight 5:32 AM HST 7:15 PM HST
Astronomical Twilight 5:06 AM HST 7:41 PM HST
Moon 5:06 AM HST (9/22) 5:37 PM HST (9/22)
Length of Visible Light 12h 51m
Length of Day
12h 07m
Tomorrow will be 1m 14s shorter.
Waning Crescent, 1% of the Moon is Illuminated
Sep 23
Waning Crescent
Sep 24
New
Oct 1
First Quarter
Oct 8
Full
Oct 15
Last Quarter

Yesterday's Extremes

State Highs State Lows

Community

WunderPhotos

Upload Photos

1,755,608 photos uploaded!

Nearby

Air Quality

  Air Quality AQ Index Pollutant
Yesterday Good
PM10
Current Good
PM2.5
Monday Good
OZONE
Tuesday Good
OZONE

Snow Depth

Station Depth Elevation
No new snow has been reported.

Earthquake Activity

City Distance Mag. Time & Date
No recent earthquake activity has been reported nearby.
Minimum magnitude displayed is 2.5.

Coastal Water Temperatures

Place Temperature
No Stations Reporting

Nearby Weather Stations